Time;durP1;ratioP1;P1;durP2;ratioP2;P2;SDS_P1;SDS_P2;PMS_P1;PMS_P2;Temp;Humidity;BMP_temperature;BMP_pressure;BME280_temperature;BME280_humidity;BME280_pressure;Samples;Min_cycle;Max_cycle;Signal;HPM_P1;HPM_P2
2022/08/20 00:00:17;;;;;;;18.70;16.95;;;;;;;;;;4889967;29;20029;-67
2022/08/20 00:02:47;;;;;;;17.00;15.27;;;;;;;;;;4889648;29;20127;-70
2022/08/20 00:05:15;;;;;;;17.33;15.63;;;;;;;;;;4890198;29;20408;-67
2022/08/20 00:07:41;;;;;;;18.00;16.20;;;;;;;;;;4885739;29;20045;-67
2022/08/20 00:10:08;;;;;;;19.63;17.48;;;;;;;;;;4889658;29;20048;-67
2022/08/20 00:12:35;;;;;;;20.25;18.25;;;;;;;;;;4889436;29;20075;-67
2022/08/20 00:15:03;;;;;;;19.65;17.83;;;;;;;;;;4888851;29;20028;-67
2022/08/20 00:17:38;;;;;;;21.00;19.10;;;;;;;;;;4887195;29;20492;-67
2022/08/20 00:20:07;;;;;;;20.50;17.52;;;;;;;;;;4888996;29;20780;-67
2022/08/20 00:22:33;;;;;;;18.95;17.15;;;;;;;;;;4888231;29;20436;-67
2022/08/20 00:24:59;;;;;;;18.00;16.35;;;;;;;;;;4888750;29;20497;-68
2022/08/20 00:27:25;;;;;;;21.98;19.88;;;;;;;;;;4885541;29;20140;-67
2022/08/20 00:29:51;;;;;;;23.73;21.33;;;;;;;;;;4907644;29;20040;-67
2022/08/20 00:32:16;;;;;;;23.40;21.00;;;;;;;;;;4890926;29;20448;-67
2022/08/20 00:34:42;;;;;;;24.83;22.23;;;;;;;;;;4887884;29;20033;-67
2022/08/20 00:37:08;;;;;;;25.83;23.23;;;;;;;;;;4889592;29;20040;-67
2022/08/20 00:39:34;;;;;;;24.08;21.67;;;;;;;;;;4886111;29;20041;-67
2022/08/20 00:42:02;;;;;;;19.13;17.35;;;;;;;;;;4886787;29;20620;-68
2022/08/20 00:44:28;;;;;;;17.15;15.38;;;;;;;;;;4893071;29;20056;-67
2022/08/20 00:46:53;;;;;;;15.38;14.05;;;;;;;;;;4890155;29;20053;-67
2022/08/20 00:49:29;;;;;;;13.27;12.18;;;;;;;;;;4888487;29;20560;-67
2022/08/20 00:52:04;;;;;;;12.88;11.88;;;;;;;;;;4890138;29;20387;-67
2022/08/20 00:54:38;;;;;;;12.65;11.65;;;;;;;;;;4889986;29;20092;-67
2022/08/20 00:57:23;;;;;;;12.02;11.13;;;;;;;;;;4889281;29;20120;-67
2022/08/20 00:59:50;;;;;;;11.48;10.68;;;;;;;;;;4890312;29;20035;-67
2022/08/20 01:02:20;;;;;;;11.15;10.32;;;;;;;;;;4887891;29;20119;-67
2022/08/20 01:04:55;;;;;;;10.95;10.20;;;;;;;;;;4889130;29;20043;-67
2022/08/20 01:07:34;;;;;;;12.13;11.13;;;;;;;;;;4889986;29;20037;-67
2022/08/20 01:10:11;;;;;;;14.70;13.57;;;;;;;;;;4889108;29;20118;-68
2022/08/20 01:12:39;;;;;;;15.15;13.85;;;;;;;;;;4887417;29;20120;-67
2022/08/20 01:15:10;;;;;;;14.38;13.27;;;;;;;;;;4887354;29;20100;-67
2022/08/20 01:17:42;;;;;;;12.55;11.65;;;;;;;;;;4889375;29;20025;-67
2022/08/20 01:20:15;;;;;;;11.07;10.23;;;;;;;;;;4887137;29;20044;-67
2022/08/20 01:26:08;;;;;;;10.77;9.98;;;;;;;;;;4890047;29;20463;-67
2022/08/20 01:28:44;;;;;;;10.68;9.95;;;;;;;;;;4888418;29;20092;-68
2022/08/20 01:31:13;;;;;;;10.45;9.65;;;;;;;;;;4886897;29;20039;-68
2022/08/20 01:33:40;;;;;;;11.25;9.93;;;;;;;;;;4886935;29;20045;-67
2022/08/20 01:36:06;;;;;;;9.88;9.18;;;;;;;;;;4887167;29;20047;-68
2022/08/20 01:38:33;;;;;;;9.88;9.10;;;;;;;;;;4887005;29;20108;-67
2022/08/20 01:41:05;;;;;;;10.75;9.80;;;;;;;;;;4887406;29;20082;-67
2022/08/20 01:43:31;;;;;;;10.68;9.98;;;;;;;;;;4888797;29;20067;-67
2022/08/20 01:45:58;;;;;;;10.50;9.65;;;;;;;;;;4888703;29;20041;-67
2022/08/20 01:48:23;;;;;;;11.35;10.48;;;;;;;;;;4886336;29;20040;-67
2022/08/20 01:51:01;;;;;;;11.10;9.93;;;;;;;;;;4883680;29;20043;-67
2022/08/20 01:53:36;;;;;;;11.25;10.45;;;;;;;;;;4887167;29;20095;-68
2022/08/20 01:56:06;;;;;;;11.02;10.23;;;;;;;;;;4887071;29;20569;-67
2022/08/20 01:58:33;;;;;;;10.38;9.68;;;;;;;;;;4883725;29;20682;-67
2022/08/20 02:00:59;;;;;;;10.20;9.50;;;;;;;;;;4887045;29;20040;-68
2022/08/20 02:03:25;;;;;;;10.50;9.80;;;;;;;;;;4891058;29;20033;-67
2022/08/20 02:05:52;;;;;;;11.05;10.15;;;;;;;;;;4889235;29;20112;-67
2022/08/20 02:08:20;;;;;;;10.70;9.95;;;;;;;;;;4885171;29;20033;-67
2022/08/20 02:10:47;;;;;;;10.55;9.82;;;;;;;;;;4890033;29;20069;-67
2022/08/20 02:13:13;;;;;;;10.27;9.57;;;;;;;;;;4886617;29;20512;-67
2022/08/20 02:15:39;;;;;;;10.43;9.63;;;;;;;;;;4884125;29;20056;-67
2022/08/20 02:18:07;;;;;;;10.15;9.40;;;;;;;;;;4884285;29;20082;-67
2022/08/20 02:20:33;;;;;;;10.30;9.47;;;;;;;;;;4884672;29;20044;-68
2022/08/20 02:22:59;;;;;;;10.57;9.75;;;;;;;;;;4884525;29;20044;-67
2022/08/20 02:25:28;;;;;;;11.48;10.48;;;;;;;;;;4889912;29;20035;-68
2022/08/20 02:27:57;;;;;;;12.50;11.60;;;;;;;;;;4886639;29;20028;-67
2022/08/20 02:30:29;;;;;;;12.88;11.68;;;;;;;;;;4890302;29;20037;-66
2022/08/20 02:32:56;;;;;;;16.42;14.93;;;;;;;;;;4891886;29;20067;-67
2022/08/20 02:35:22;;;;;;;16.65;14.95;;;;;;;;;;4888492;29;20071;-67
2022/08/20 02:37:49;;;;;;;18.75;16.90;;;;;;;;;;4888848;29;20457;-67
2022/08/20 02:40:17;;;;;;;17.17;15.55;;;;;;;;;;4894255;29;20108;-67
2022/08/20 02:42:43;;;;;;;14.60;13.43;;;;;;;;;;4890308;29;20701;-67
2022/08/20 02:45:11;;;;;;;15.15;13.75;;;;;;;;;;4886705;29;20115;-67
2022/08/20 02:47:37;;;;;;;14.18;12.93;;;;;;;;;;4891605;29;20132;-67
2022/08/20 02:50:05;;;;;;;15.30;13.70;;;;;;;;;;4889511;29;20028;-67
2022/08/20 02:52:31;;;;;;;13.77;12.63;;;;;;;;;;4886266;29;20052;-67
2022/08/20 02:54:57;;;;;;;12.40;11.40;;;;;;;;;;4891240;29;20037;-67
2022/08/20 02:57:23;;;;;;;12.10;11.30;;;;;;;;;;4882215;29;20048;-67
2022/08/20 02:59:51;;;;;;;12.95;11.95;;;;;;;;;;4895019;29;20548;-67
2022/08/20 03:02:17;;;;;;;12.23;11.32;;;;;;;;;;4891055;29;20190;-68
2022/08/20 03:04:43;;;;;;;12.95;11.90;;;;;;;;;;4894237;29;20059;-67
2022/08/20 03:07:10;;;;;;;13.27;12.27;;;;;;;;;;4893006;29;20040;-67
2022/08/20 03:09:36;;;;;;;16.42;14.93;;;;;;;;;;4895756;29;20028;-67
2022/08/20 03:12:03;;;;;;;13.23;12.00;;;;;;;;;;4893290;29;20052;-68
2022/08/20 03:14:29;;;;;;;14.35;13.13;;;;;;;;;;4892583;29;20039;-68
2022/08/20 03:16:55;;;;;;;13.30;11.00;;;;;;;;;;4892106;29;20440;-68
2022/08/20 03:19:21;;;;;;;12.45;11.52;;;;;;;;;;4895575;29;20617;-68
2022/08/20 03:21:48;;;;;;;13.85;12.75;;;;;;;;;;4897125;29;20044;-67
2022/08/20 03:24:14;;;;;;;12.40;11.23;;;;;;;;;;4891864;29;20032;-67
2022/08/20 03:26:39;;;;;;;10.90;9.88;;;;;;;;;;4895543;29;20050;-67
2022/08/20 03:29:05;;;;;;;11.02;10.05;;;;;;;;;;4896876;29;20036;-67
2022/08/20 03:31:31;;;;;;;11.05;10.15;;;;;;;;;;4893763;29;20033;-67
2022/08/20 03:33:56;;;;;;;11.43;10.35;;;;;;;;;;4894593;29;20037;-67
2022/08/20 03:36:24;;;;;;;11.18;10.38;;;;;;;;;;4894806;29;20032;-67
2022/08/20 03:38:49;;;;;;;11.60;10.77;;;;;;;;;;4895249;29;20040;-68
2022/08/20 03:41:15;;;;;;;12.65;11.40;;;;;;;;;;4891273;29;20147;-67
2022/08/20 03:43:41;;;;;;;12.50;11.48;;;;;;;;;;4894947;29;20109;-67
2022/08/20 03:46:08;;;;;;;12.45;11.35;;;;;;;;;;4895967;29;20485;-67
2022/08/20 03:48:33;;;;;;;13.18;12.10;;;;;;;;;;4895649;29;20036;-67
2022/08/20 03:50:59;;;;;;;14.63;13.10;;;;;;;;;;4888184;29;20116;-67
2022/08/20 03:53:30;;;;;;;14.40;13.10;;;;;;;;;;4889654;29;20068;-67
2022/08/20 03:55:59;;;;;;;13.77;12.52;;;;;;;;;;4895619;29;20036;-67
2022/08/20 03:58:27;;;;;;;;;;;;;;;;;;4886178;29;20044;-67
2022/08/20 04:00:53;;;;;;;12.77;11.68;;;;;;;;;;4896554;29;20442;-67
2022/08/20 04:03:19;;;;;;;12.40;11.32;;;;;;;;;;4895341;29;20047;-67
2022/08/20 04:05:45;;;;;;;12.43;11.40;;;;;;;;;;4893052;29;20037;-66
2022/08/20 04:08:15;;;;;;;11.95;11.00;;;;;;;;;;4897999;29;20048;-67
2022/08/20 04:10:41;;;;;;;12.13;11.02;;;;;;;;;;4890014;29;20570;-67
2022/08/20 04:13:07;;;;;;;11.98;10.90;;;;;;;;;;4892056;29;20036;-66
2022/08/20 04:15:34;;;;;;;12.45;11.23;;;;;;;;;;4894456;29;20611;-66
2022/08/20 04:18:00;;;;;;;12.77;11.63;;;;;;;;;;4894801;29;20096;-66
2022/08/20 04:20:26;;;;;;;13.45;12.35;;;;;;;;;;4894645;29;20044;-66
2022/08/20 04:22:56;;;;;;;13.82;12.52;;;;;;;;;;4891354;29;20048;-66
2022/08/20 04:25:22;;;;;;;13.52;12.43;;;;;;;;;;4891942;29;20044;-66
2022/08/20 04:27:49;;;;;;;12.73;11.43;;;;;;;;;;4894175;29;20029;-66
2022/08/20 04:30:16;;;;;;;13.00;12.00;;;;;;;;;;4890855;29;20048;-66
2022/08/20 04:32:43;;;;;;;12.23;11.23;;;;;;;;;;4892240;29;20040;-66
2022/08/20 04:35:13;;;;;;;13.05;11.52;;;;;;;;;;4893650;29;20037;-66
2022/08/20 04:37:40;;;;;;;12.50;11.43;;;;;;;;;;4897430;29;20036;-66
2022/08/20 04:42:54;;;;;;;11.70;10.80;;;;;;;;;;4891568;29;20036;-66
2022/08/20 04:45:20;;;;;;;11.50;10.50;;;;;;;;;;4891720;29;20059;-66
2022/08/20 04:47:48;;;;;;;11.90;10.95;;;;;;;;;;4892505;29;20040;-66
2022/08/20 04:50:15;;;;;;;11.27;10.48;;;;;;;;;;4890183;29;20043;-66
2022/08/20 04:52:41;;;;;;;11.60;10.70;;;;;;;;;;4893576;29;20079;-66
2022/08/20 04:55:08;;;;;;;10.88;9.93;;;;;;;;;;4893315;29;20172;-66
2022/08/20 04:57:37;;;;;;;10.68;9.77;;;;;;;;;;4889288;29;20036;-66
2022/08/20 05:00:09;;;;;;;10.82;10.02;;;;;;;;;;4892456;29;20040;-66
2022/08/20 05:02:36;;;;;;;11.07;10.18;;;;;;;;;;4892593;29;20104;-66
2022/08/20 05:05:03;;;;;;;11.68;10.68;;;;;;;;;;4887373;29;20071;-66
2022/08/20 05:07:29;;;;;;;11.60;10.70;;;;;;;;;;4891685;29;20036;-66
2022/08/20 05:09:55;;;;;;;12.18;11.18;;;;;;;;;;4893691;29;20059;-66
2022/08/20 05:12:20;;;;;;;12.20;11.10;;;;;;;;;;4889933;29;20658;-66
2022/08/20 05:14:46;;;;;;;11.70;10.70;;;;;;;;;;4891072;29;20028;-66
2022/08/20 05:17:15;;;;;;;12.18;11.27;;;;;;;;;;4894110;29;20094;-66
2022/08/20 05:19:41;;;;;;;11.38;10.48;;;;;;;;;;4891642;29;20147;-66
2022/08/20 05:22:07;;;;;;;11.25;10.20;;;;;;;;;;4890062;29;20039;-64
2022/08/20 05:24:33;;;;;;;12.57;11.45;;;;;;;;;;4889741;29;20040;-66
2022/08/20 05:26:59;;;;;;;11.27;10.45;;;;;;;;;;4893273;29;20068;-66
2022/08/20 05:29:26;;;;;;;12.00;10.30;;;;;;;;;;4892198;29;20108;-66
2022/08/20 05:31:53;;;;;;;12.05;10.82;;;;;;;;;;4893494;29;21872;-66
2022/08/20 05:34:18;;;;;;;12.32;11.20;;;;;;;;;;4891599;29;20059;-66
2022/08/20 05:36:47;;;;;;;11.45;10.30;;;;;;;;;;4892979;29;20383;-65
2022/08/20 05:39:13;;;;;;;12.03;11.03;;;;;;;;;;4893318;29;20036;-66
2022/08/20 05:41:39;;;;;;;11.40;10.50;;;;;;;;;;4887639;29;20297;-66
2022/08/20 05:44:12;;;;;;;12.10;11.20;;;;;;;;;;4890146;29;20507;-67
2022/08/20 05:46:39;;;;;;;12.38;11.18;;;;;;;;;;4889290;29;20040;-65
2022/08/20 05:49:09;;;;;;;12.10;11.00;;;;;;;;;;4892543;29;20060;-66
2022/08/20 05:51:36;;;;;;;12.93;11.65;;;;;;;;;;4888183;29;20044;-66
2022/08/20 05:54:03;;;;;;;12.23;11.32;;;;;;;;;;4892571;29;20729;-65
2022/08/20 05:56:29;;;;;;;12.45;11.27;;;;;;;;;;4897629;29;20025;-66
2022/08/20 05:58:56;;;;;;;11.80;10.88;;;;;;;;;;4892708;29;20040;-65
2022/08/20 06:01:21;;;;;;;12.23;11.07;;;;;;;;;;4894086;29;20163;-65
2022/08/20 06:06:32;;;;;;;11.82;10.93;;;;;;;;;;4892178;29;20093;-69
2022/08/20 06:08:58;;;;;;;12.50;11.45;;;;;;;;;;4887836;29;20477;-66
2022/08/20 06:11:24;;;;;;;12.23;11.20;;;;;;;;;;4888592;29;20041;-66
2022/08/20 06:13:49;;;;;;;12.50;11.60;;;;;;;;;;4890262;29;20040;-66
2022/08/20 06:16:15;;;;;;;11.48;10.60;;;;;;;;;;4906446;29;20140;-66
2022/08/20 06:18:40;;;;;;;12.63;11.73;;;;;;;;;;4891188;29;20091;-66
2022/08/20 06:21:06;;;;;;;12.00;11.10;;;;;;;;;;4887104;29;20037;-66
2022/08/20 06:23:32;;;;;;;12.98;11.75;;;;;;;;;;4892381;29;20520;-66
2022/08/20 06:25:57;;;;;;;12.23;11.32;;;;;;;;;;4892040;29;20039;-66
2022/08/20 06:28:23;;;;;;;13.07;11.88;;;;;;;;;;4886954;29;20543;-66
2022/08/20 06:30:49;;;;;;;12.50;11.50;;;;;;;;;;4887768;29;20043;-67
2022/08/20 06:33:14;;;;;;;12.27;11.38;;;;;;;;;;4886674;29;20592;-67
2022/08/20 06:35:41;;;;;;;12.90;11.77;;;;;;;;;;4904687;29;20041;-67
2022/08/20 06:38:09;;;;;;;11.90;11.10;;;;;;;;;;4887327;29;20066;-66
2022/08/20 06:40:35;;;;;;;12.13;10.95;;;;;;;;;;4887570;29;20037;-66
2022/08/20 06:43:00;;;;;;;12.27;11.18;;;;;;;;;;4889920;29;20040;-66
2022/08/20 06:45:30;;;;;;;11.98;10.85;;;;;;;;;;4887684;29;20504;-67
2022/08/20 06:47:56;;;;;;;;;;;;;;;;;;4889483;29;20040;-66
2022/08/20 06:50:40;;;;;;;12.48;11.40;;;;;;;;;;4887057;29;19915;-67
2022/08/20 06:53:07;;;;;;;11.90;10.98;;;;;;;;;;4885382;29;20508;-66
2022/08/20 06:55:36;;;;;;;11.90;10.90;;;;;;;;;;4885702;29;20088;-67
2022/08/20 06:58:05;;;;;;;12.45;11.35;;;;;;;;;;4883906;29;20470;-66
2022/08/20 07:00:32;;;;;;;12.13;11.23;;;;;;;;;;4884016;29;20469;-66
2022/08/20 07:03:02;;;;;;;11.73;10.77;;;;;;;;;;4883086;29;20059;-67
2022/08/20 07:05:34;;;;;;;12.07;11.05;;;;;;;;;;4889575;29;20041;-67
2022/08/20 07:08:00;;;;;;;11.27;10.48;;;;;;;;;;4889473;29;20028;-67
2022/08/20 07:10:27;;;;;;;11.55;10.43;;;;;;;;;;4891225;29;20037;-67
2022/08/20 07:12:53;;;;;;;11.40;10.60;;;;;;;;;;4890390;29;20108;-66
2022/08/20 07:15:20;;;;;;;11.38;10.57;;;;;;;;;;4889777;29;20040;-67
2022/08/20 07:17:59;;;;;;;13.25;12.07;;;;;;;;;;4882252;29;20033;-66
2022/08/20 07:20:26;;;;;;;12.18;11.27;;;;;;;;;;4905428;29;20040;-67
2022/08/20 07:22:51;;;;;;;12.40;11.30;;;;;;;;;;4891125;29;20040;-67
2022/08/20 07:25:19;;;;;;;11.88;10.90;;;;;;;;;;4889895;29;20055;-66
2022/08/20 07:27:46;;;;;;;12.00;11.00;;;;;;;;;;4889396;29;20119;-67
2022/08/20 07:33:00;;;;;;;;;;;;;;;;;;4890560;29;20045;-67
2022/08/20 07:35:26;;;;;;;11.75;10.77;;;;;;;;;;4887957;29;19971;-67
2022/08/20 07:37:53;;;;;;;12.13;11.23;;;;;;;;;;4889438;29;20729;-67
2022/08/20 07:40:28;;;;;;;11.75;10.95;;;;;;;;;;4890612;29;20040;-67
2022/08/20 07:42:55;;;;;;;11.90;11.05;;;;;;;;;;4889824;29;20064;-66
2022/08/20 07:45:22;;;;;;;11.52;10.73;;;;;;;;;;4891340;29;20040;-66
2022/08/20 07:47:48;;;;;;;12.25;11.32;;;;;;;;;;4894547;29;20138;-68
2022/08/20 07:50:18;;;;;;;12.70;11.45;;;;;;;;;;4894939;29;20036;-67
2022/08/20 07:52:44;;;;;;;12.60;11.57;;;;;;;;;;4893534;29;20033;-67
2022/08/20 07:55:13;;;;;;;13.02;11.70;;;;;;;;;;4892844;29;20040;-67
2022/08/20 07:57:40;;;;;;;12.27;11.38;;;;;;;;;;4894642;29;20028;-66
2022/08/20 08:00:07;;;;;;;12.50;11.50;;;;;;;;;;4892271;29;20043;-66
2022/08/20 08:02:35;;;;;;;12.82;11.48;;;;;;;;;;4890028;29;20489;-67
2022/08/20 08:05:00;;;;;;;12.48;11.43;;;;;;;;;;4894418;29;20101;-67
2022/08/20 08:07:26;;;;;;;12.70;11.63;;;;;;;;;;4894903;29;20512;-66
2022/08/20 08:09:53;;;;;;;13.00;11.68;;;;;;;;;;4891377;29;20040;-67
2022/08/20 08:12:20;;;;;;;12.32;11.20;;;;;;;;;;4892215;29;20039;-67
2022/08/20 08:14:46;;;;;;;12.25;11.23;;;;;;;;;;4893863;29;20040;-67
2022/08/20 08:17:15;;;;;;;12.18;11.27;;;;;;;;;;4894333;29;20105;-66
2022/08/20 08:19:47;;;;;;;12.07;11.10;;;;;;;;;;4891795;29;20037;-66
2022/08/20 08:22:15;;;;;;;12.63;11.52;;;;;;;;;;4894354;29;20044;-67
2022/08/20 08:24:43;;;;;;;12.32;11.25;;;;;;;;;;4889606;29;20040;-67
2022/08/20 08:27:09;;;;;;;12.02;11.10;;;;;;;;;;4893527;29;20036;-67
2022/08/20 08:29:35;;;;;;;11.90;10.88;;;;;;;;;;4892953;29;20047;-67
2022/08/20 08:32:03;;;;;;;11.98;11.10;;;;;;;;;;4893298;29;20124;-67
2022/08/20 08:34:30;;;;;;;11.70;10.70;;;;;;;;;;4890472;29;20488;-67
2022/08/20 08:36:57;;;;;;;11.27;10.48;;;;;;;;;;4893824;29;20396;-67
2022/08/20 08:39:23;;;;;;;11.30;10.50;;;;;;;;;;4893097;29;20246;-66
2022/08/20 08:41:50;;;;;;;12.48;10.32;;;;;;;;;;4892241;29;20036;-67
2022/08/20 08:44:25;;;;;;;11.50;10.48;;;;;;;;;;4894224;29;20393;-67
2022/08/20 08:46:56;;;;;;;11.68;10.70;;;;;;;;;;4894240;29;20044;-68
2022/08/20 08:49:28;;;;;;;11.15;10.15;;;;;;;;;;4891410;29;20525;-67
2022/08/20 08:52:00;;;;;;;11.18;10.32;;;;;;;;;;4882557;29;20044;-67
2022/08/20 08:54:30;;;;;;;11.60;10.27;;;;;;;;;;4890831;29;20035;-66
2022/08/20 08:56:55;;;;;;;11.10;10.20;;;;;;;;;;4890831;29;20051;-66
2022/08/20 08:59:22;;;;;;;11.10;10.30;;;;;;;;;;4891255;29;20397;-66
2022/08/20 09:01:51;;;;;;;11.20;10.40;;;;;;;;;;4892920;29;20035;-66
2022/08/20 09:04:20;;;;;;;10.63;9.63;;;;;;;;;;4893055;29;20483;-66
2022/08/20 09:06:47;;;;;;;10.75;9.85;;;;;;;;;;4890576;29;20091;-66
2022/08/20 09:09:26;;;;;;;11.07;10.00;;;;;;;;;;4890571;29;20653;-66
2022/08/20 09:11:56;;;;;;;11.32;10.43;;;;;;;;;;4892164;29;20039;-66
2022/08/20 09:14:23;;;;;;;11.82;10.88;;;;;;;;;;4885633;29;20461;-65
2022/08/20 09:16:50;;;;;;;11.35;10.35;;;;;;;;;;4892984;29;20045;-66
2022/08/20 09:19:15;;;;;;;11.13;10.20;;;;;;;;;;4889331;29;20057;-66
2022/08/20 09:21:42;;;;;;;11.38;10.25;;;;;;;;;;4889273;29;20077;-66
2022/08/20 09:24:08;;;;;;;10.57;9.85;;;;;;;;;;4889955;29;20032;-66
2022/08/20 09:26:34;;;;;;;14.13;11.25;;;;;;;;;;4892135;29;20044;-66
2022/08/20 09:29:00;;;;;;;12.32;11.23;;;;;;;;;;4889725;29;20040;-66
2022/08/20 09:31:26;;;;;;;13.93;12.35;;;;;;;;;;4891576;29;20063;-65
2022/08/20 09:33:51;;;;;;;13.70;12.10;;;;;;;;;;4891359;29;20412;-65
2022/08/20 09:36:17;;;;;;;15.60;14.20;;;;;;;;;;4891742;29;20096;-64
2022/08/20 09:38:43;;;;;;;17.00;15.80;;;;;;;;;;4891302;29;20415;-67
2022/08/20 09:41:09;;;;;;;15.95;14.85;;;;;;;;;;4890144;29;20064;-66
2022/08/20 09:43:35;;;;;;;15.05;14.15;;;;;;;;;;4890861;29;20107;-67
2022/08/20 09:46:01;;;;;;;15.25;14.15;;;;;;;;;;4887760;29;20127;-67
2022/08/20 09:48:26;;;;;;;15.05;13.95;;;;;;;;;;4889953;29;20697;-67
2022/08/20 09:50:52;;;;;;;15.27;14.27;;;;;;;;;;4892109;29;20048;-67
2022/08/20 09:53:19;;;;;;;14.85;13.70;;;;;;;;;;4890536;29;20063;-67
2022/08/20 09:55:50;;;;;;;16.17;14.73;;;;;;;;;;4889718;29;20041;-67
2022/08/20 09:58:21;;;;;;;15.25;14.32;;;;;;;;;;4892559;29;20067;-67
2022/08/20 10:00:47;;;;;;;14.63;13.52;;;;;;;;;;4892316;29;20720;-65
2022/08/20 10:03:13;;;;;;;16.35;14.45;;;;;;;;;;4891240;29;20036;-66
2022/08/20 10:05:39;;;;;;;15.68;14.63;;;;;;;;;;4890574;29;20064;-67
2022/08/20 10:08:06;;;;;;;16.55;15.27;;;;;;;;;;4886999;29;20036;-67
2022/08/20 10:10:32;;;;;;;16.33;15.02;;;;;;;;;;4905229;29;20032;-66
2022/08/20 10:12:57;;;;;;;16.67;15.48;;;;;;;;;;4890460;29;20084;-67
2022/08/20 10:15:23;;;;;;;17.17;15.55;;;;;;;;;;4890850;29;20036;-67
2022/08/20 10:17:48;;;;;;;17.55;15.70;;;;;;;;;;4890228;29;20044;-67
2022/08/20 10:20:17;;;;;;;16.20;15.00;;;;;;;;;;4891822;29;20039;-67
2022/08/20 10:22:42;;;;;;;16.70;15.50;;;;;;;;;;4889299;29;20127;-67
2022/08/20 10:25:09;;;;;;;16.38;15.05;;;;;;;;;;4890279;29;20396;-67
2022/08/20 10:27:35;;;;;;;15.93;14.73;;;;;;;;;;4892187;29;20035;-67
2022/08/20 10:30:01;;;;;;;14.95;13.95;;;;;;;;;;4890936;29;20382;-67
2022/08/20 10:32:26;;;;;;;15.25;14.15;;;;;;;;;;4890688;29;20032;-67
2022/08/20 10:34:52;;;;;;;15.77;14.65;;;;;;;;;;4892127;29;20044;-66
2022/08/20 10:37:20;;;;;;;17.33;16.02;;;;;;;;;;4891643;29;20040;-67
2022/08/20 10:39:46;;;;;;;16.00;14.95;;;;;;;;;;4892184;29;20044;-67
2022/08/20 10:42:12;;;;;;;17.27;15.88;;;;;;;;;;4888507;29;20052;-67
2022/08/20 10:44:38;;;;;;;16.75;15.55;;;;;;;;;;4890495;29;20044;-67
2022/08/20 10:47:25;;;;;;;16.30;14.98;;;;;;;;;;4888991;29;20397;-67
2022/08/20 10:49:53;;;;;;;17.92;16.30;;;;;;;;;;4883356;29;20040;-66
2022/08/20 10:52:20;;;;;;;15.43;14.40;;;;;;;;;;4890918;29;20029;-66
2022/08/20 10:54:46;;;;;;;15.07;13.95;;;;;;;;;;4891070;29;20032;-67
2022/08/20 10:57:14;;;;;;;15.40;14.20;;;;;;;;;;4884030;29;20040;-67
2022/08/20 10:59:42;;;;;;;15.57;14.10;;;;;;;;;;4888443;29;20440;-67
2022/08/20 11:02:07;;;;;;;14.40;13.50;;;;;;;;;;4891546;29;20043;-68
2022/08/20 11:04:34;;;;;;;14.82;13.63;;;;;;;;;;4891671;29;20036;-67
2022/08/20 11:07:33;;;;;;;15.25;13.77;;;;;;;;;;4887854;29;20037;-68
2022/08/20 11:09:59;;;;;;;13.65;12.63;;;;;;;;;;4875465;29;20621;-67
2022/08/20 11:12:25;;;;;;;13.32;12.50;;;;;;;;;;4869712;29;20132;-67
2022/08/20 11:14:51;;;;;;;13.07;12.27;;;;;;;;;;4870432;29;20088;-67
2022/08/20 11:17:22;;;;;;;13.18;12.38;;;;;;;;;;4874162;29;20513;-67
2022/08/20 11:19:48;;;;;;;12.90;12.10;;;;;;;;;;4879473;29;20053;-68
2022/08/20 11:22:14;;;;;;;12.95;11.88;;;;;;;;;;4880936;29;20040;-67
2022/08/20 11:24:40;;;;;;;12.65;11.75;;;;;;;;;;4879402;29;20041;-68
2022/08/20 11:27:07;;;;;;;12.88;12.07;;;;;;;;;;4876752;29;20149;-67
2022/08/20 11:29:36;;;;;;;12.98;12.25;;;;;;;;;;4879150;29;20754;-68
2022/08/20 11:32:04;;;;;;;13.77;12.77;;;;;;;;;;4865861;29;20040;-68
2022/08/20 11:34:30;;;;;;;13.02;12.23;;;;;;;;;;4879166;29;20425;-68
2022/08/20 11:36:57;;;;;;;14.38;13.40;;;;;;;;;;4886567;29;20485;-68
2022/08/20 11:39:24;;;;;;;13.95;13.15;;;;;;;;;;4885679;29;20274;-67
2022/08/20 11:41:50;;;;;;;14.35;13.38;;;;;;;;;;4876974;29;20040;-68
2022/08/20 11:44:15;;;;;;;13.75;12.65;;;;;;;;;;4878586;29;20033;-68
2022/08/20 11:46:41;;;;;;;13.02;12.13;;;;;;;;;;4889705;29;20080;-69
2022/08/20 11:49:07;;;;;;;12.52;11.82;;;;;;;;;;4906184;29;20036;-68
2022/08/20 11:51:33;;;;;;;12.43;11.73;;;;;;;;;;4894661;29;20048;-67
2022/08/20 11:53:59;;;;;;;12.60;11.90;;;;;;;;;;4894660;29;20045;-67
2022/08/20 11:56:24;;;;;;;12.20;11.32;;;;;;;;;;4893486;29;20060;-67
2022/08/20 11:58:50;;;;;;;12.10;11.40;;;;;;;;;;4893233;29;20080;-67
2022/08/20 12:01:16;;;;;;;12.35;11.65;;;;;;;;;;4894037;29;20486;-67
2022/08/20 12:03:41;;;;;;;12.02;11.30;;;;;;;;;;4890464;29;20037;-67
2022/08/20 12:06:07;;;;;;;11.60;10.90;;;;;;;;;;4891439;29;20429;-67
2022/08/20 12:08:33;;;;;;;11.82;11.13;;;;;;;;;;4894096;29;20076;-67
2022/08/20 12:11:00;;;;;;;12.73;11.82;;;;;;;;;;4893877;29;20036;-67
2022/08/20 12:13:28;;;;;;;11.85;11.15;;;;;;;;;;4889949;29;20032;-67
2022/08/20 12:15:54;;;;;;;11.63;11.00;;;;;;;;;;4890727;29;20538;-68
2022/08/20 12:18:20;;;;;;;11.40;10.63;;;;;;;;;;4892234;29;20585;-67
2022/08/20 12:20:45;;;;;;;11.65;11.05;;;;;;;;;;4892245;29;20041;-68
2022/08/20 12:23:11;;;;;;;11.15;10.55;;;;;;;;;;4896015;29;20474;-67
2022/08/20 12:25:37;;;;;;;11.60;10.90;;;;;;;;;;4894094;29;20032;-67
2022/08/20 12:28:04;;;;;;;11.27;10.68;;;;;;;;;;4893748;29;20040;-67
2022/08/20 12:30:31;;;;;;;12.30;11.40;;;;;;;;;;4890163;29;20081;-67
2022/08/20 12:32:57;;;;;;;11.30;10.68;;;;;;;;;;4894859;29;20032;-67
2022/08/20 12:35:22;;;;;;;11.50;10.65;;;;;;;;;;4892140;29;20052;-67
2022/08/20 12:37:49;;;;;;;11.40;10.80;;;;;;;;;;4894372;29;20025;-67
2022/08/20 12:40:18;;;;;;;11.20;10.60;;;;;;;;;;4891364;29;20040;-67
2022/08/20 12:42:44;;;;;;;11.38;10.75;;;;;;;;;;4892718;29;20048;-67
2022/08/20 12:45:10;;;;;;;10.82;10.23;;;;;;;;;;4893699;29;20039;-67
2022/08/20 12:47:38;;;;;;;11.75;10.95;;;;;;;;;;4894055;29;20048;-67
2022/08/20 12:50:11;;;;;;;12.30;11.50;;;;;;;;;;4891736;29;20134;-67
2022/08/20 12:52:37;;;;;;;11.45;10.75;;;;;;;;;;4892421;29;20320;-67
2022/08/20 12:55:05;;;;;;;12.00;11.30;;;;;;;;;;4893263;29;20051;-67
2022/08/20 12:57:37;;;;;;;11.77;11.07;;;;;;;;;;4893878;29;20188;-67
2022/08/20 13:00:14;;;;;;;12.13;11.32;;;;;;;;;;4889648;29;20044;-68
2022/08/20 13:02:40;;;;;;;12.93;12.05;;;;;;;;;;4892123;29;20040;-66
2022/08/20 13:05:08;;;;;;;12.27;11.48;;;;;;;;;;4893193;29;20075;-66
2022/08/20 13:07:35;;;;;;;11.75;11.05;;;;;;;;;;4890795;29;20044;-66
2022/08/20 13:10:02;;;;;;;12.48;11.60;;;;;;;;;;4892735;29;20525;-66
2022/08/20 13:12:28;;;;;;;12.95;12.02;;;;;;;;;;4894394;29;20119;-66
2022/08/20 13:14:53;;;;;;;12.10;11.30;;;;;;;;;;4892532;29;20625;-66
2022/08/20 13:17:19;;;;;;;12.13;11.32;;;;;;;;;;4907773;29;20043;-66
2022/08/20 13:19:45;;;;;;;11.68;10.75;;;;;;;;;;4910760;29;20062;-66
2022/08/20 13:22:12;;;;;;;12.80;11.68;;;;;;;;;;4888697;29;20056;-66
2022/08/20 13:24:38;;;;;;;12.43;11.52;;;;;;;;;;4890655;29;20089;-66
2022/08/20 13:27:14;;;;;;;12.63;11.75;;;;;;;;;;4892902;29;20044;-66
2022/08/20 13:29:48;;;;;;;13.18;12.13;;;;;;;;;;4890681;29;20043;-67
2022/08/20 13:32:13;;;;;;;12.60;11.77;;;;;;;;;;4891381;29;20092;-66
2022/08/20 13:34:39;;;;;;;12.95;11.82;;;;;;;;;;4892706;29;20033;-67
2022/08/20 13:37:17;;;;;;;14.18;13.05;;;;;;;;;;4884871;29;20033;-65
2022/08/20 13:39:43;;;;;;;16.85;14.98;;;;;;;;;;4889622;29;20044;-66
2022/08/20 13:42:09;;;;;;;18.52;17.00;;;;;;;;;;4902550;29;20062;-69
2022/08/20 13:44:35;;;;;;;19.23;17.80;;;;;;;;;;4892361;29;20502;-67
2022/08/20 13:47:23;;;;;;;19.35;18.05;;;;;;;;;;4909374;29;20561;-67
2022/08/20 13:49:59;;;;;;;18.23;17.02;;;;;;;;;;4883531;29;20132;-67
2022/08/20 13:52:26;;;;;;;18.67;17.38;;;;;;;;;;4892392;29;20037;-68
2022/08/20 13:54:52;;;;;;;16.45;15.45;;;;;;;;;;4891355;29;20362;-68
2022/08/20 13:57:20;;;;;;;16.60;15.43;;;;;;;;;;4886960;29;20441;-68
2022/08/20 13:59:48;;;;;;;16.27;15.27;;;;;;;;;;4893235;29;20044;-68
2022/08/20 14:02:15;;;;;;;16.65;15.52;;;;;;;;;;4893487;29;20095;-68
2022/08/20 14:04:41;;;;;;;17.15;15.85;;;;;;;;;;4889044;29;20110;-68
2022/08/20 14:07:15;;;;;;;17.45;16.17;;;;;;;;;;4887001;29;20045;-68
2022/08/20 14:09:43;;;;;;;16.70;15.27;;;;;;;;;;4892350;29;20040;-68
2022/08/20 14:12:10;;;;;;;15.95;14.95;;;;;;;;;;4886414;29;20108;-67
2022/08/20 14:14:36;;;;;;;17.52;16.33;;;;;;;;;;4886519;29;20160;-67
2022/08/20 14:17:16;;;;;;;16.90;15.57;;;;;;;;;;4890706;29;20032;-66
2022/08/20 14:19:43;;;;;;;16.52;15.43;;;;;;;;;;4885588;29;20127;-67
2022/08/20 14:22:08;;;;;;;15.63;14.63;;;;;;;;;;4889311;29;20068;-69
2022/08/20 14:24:34;;;;;;;15.63;14.63;;;;;;;;;;4891624;29;20066;-67
2022/08/20 14:27:05;;;;;;;14.73;13.60;;;;;;;;;;4890262;29;20064;-67
2022/08/20 14:29:35;;;;;;;14.48;13.40;;;;;;;;;;4892389;29;20044;-67
2022/08/20 14:32:02;;;;;;;13.52;12.73;;;;;;;;;;4892444;29;20040;-67